Sao Miguel do Anta, Brazil
Current Conditions -  °F | °C
As of 10:00 AM on Friday 31 Oct 2014 (Local Time) from SBBQ Reporting Station
Broken Clouds Broken Clouds  
Wind Chill: 72°   Ceiling: 1500
Heat Index: 72°   Visibility: 6mi
Dew Point: 63°   Wind: 8mph
Humidity: 73%   Direction: 30°NNE
Pressure: 30.21"   Gusts: NA
Location:  20.71°S, 42.72°W
Report Text: SBBQ 311200Z 03007KT 9999 BKN015 22/17 Q1023
Loading
Personal Weather Stations






























Interactive Weather Map
Tropical Storm Tracking
New forecast layout! Learn more

10-Day Weather Forecast

Advertisements
Track Severe Weather on mobile